createdAt,value
2023-10-10T00:00:37.908Z,66.57
2023-10-10T00:01:42.018Z,66.57
2023-10-10T00:02:44.811Z,66.58
2023-10-10T00:03:47.613Z,66.58
2023-10-10T00:04:50.369Z,66.64
2023-10-10T00:05:53.194Z,66.81
2023-10-10T00:06:56.066Z,66.82
2023-10-10T00:07:58.735Z,66.98
2023-10-10T00:09:01.501Z,66.90
2023-10-10T00:10:04.331Z,66.87
2023-10-10T00:11:07.604Z,66.99
2023-10-10T00:12:10.813Z,67.16
2023-10-10T00:13:13.150Z,67.20
2023-10-10T00:14:15.441Z,67.39
2023-10-10T00:15:17.726Z,67.54
2023-10-10T00:16:21.368Z,67.55
2023-10-10T00:17:24.144Z,67.62
2023-10-10T00:18:26.528Z,67.70
2023-10-10T00:19:28.852Z,67.73
2023-10-10T00:20:31.312Z,67.71
2023-10-10T00:21:33.594Z,67.81
2023-10-10T00:22:35.915Z,67.76
2023-10-10T00:23:38.928Z,67.82
2023-10-10T00:24:41.434Z,67.86
2023-10-10T00:25:43.750Z,67.94
2023-10-10T00:26:46.047Z,68.04
2023-10-10T00:27:48.339Z,68.11
2023-10-10T00:28:51.441Z,68.18
2023-10-10T00:29:53.686Z,68.15
2023-10-10T00:30:55.830Z,68.16
2023-10-10T00:31:58.282Z,68.25
2023-10-10T00:33:01.879Z,68.20
2023-10-10T00:34:05.321Z,68.29
2023-10-10T00:35:08.027Z,68.37
2023-10-10T00:36:11.915Z,68.39
2023-10-10T00:37:18.940Z,68.44
2023-10-10T00:38:21.408Z,68.53
2023-10-10T00:39:23.551Z,68.53
2023-10-10T00:40:26.415Z,68.63
2023-10-10T00:41:29.247Z,68.44
2023-10-10T00:42:32.246Z,68.46
2023-10-10T00:43:35.126Z,68.34
2023-10-10T00:44:37.491Z,68.29
2023-10-10T00:45:40.122Z,68.36
2023-10-10T00:46:43.047Z,68.29
2023-10-10T00:47:46.788Z,68.17
2023-10-10T00:48:49.207Z,68.27
2023-10-10T00:49:51.649Z,68.21
2023-10-10T00:50:54.652Z,68.22
2023-10-10T00:51:58.862Z,68.16
2023-10-10T00:53:02.279Z,68.02
2023-10-10T00:54:05.340Z,67.92
2023-10-10T00:55:09.374Z,67.86
2023-10-10T00:56:12.130Z,67.77
2023-10-10T00:57:15.221Z,67.70
2023-10-10T00:58:18.913Z,67.63
2023-10-10T00:59:22.832Z,67.45
2023-10-10T01:00:25.306Z,67.49
2023-10-10T01:01:27.702Z,67.40
2023-10-10T01:02:30.019Z,67.34
2023-10-10T01:03:32.664Z,67.30
2023-10-10T01:04:35.175Z,67.46
2023-10-10T01:05:38.600Z,67.46
2023-10-10T01:06:40.873Z,67.39
2023-10-10T01:07:44.764Z,67.53
2023-10-10T01:10:02.270Z,67.41
2023-10-10T01:11:04.793Z,67.64
2023-10-10T01:12:07.472Z,67.73
2023-10-10T01:13:10.365Z,67.71
2023-10-10T01:14:12.759Z,67.68
2023-10-10T01:15:15.157Z,67.59
2023-10-10T01:16:18.162Z,67.67
2023-10-10T01:17:21.318Z,67.64
2023-10-10T01:18:23.671Z,67.62
2023-10-10T01:19:26.662Z,67.71
2023-10-10T01:20:29.963Z,67.73
2023-10-10T01:21:32.347Z,67.66
2023-10-10T01:22:35.029Z,67.76
2023-10-10T01:23:39.435Z,67.82
2023-10-10T01:24:41.893Z,67.81
2023-10-10T01:25:44.248Z,67.85
2023-10-10T01:26:47.440Z,67.85
2023-10-10T01:27:50.779Z,67.79
2023-10-10T01:28:53.079Z,67.77
2023-10-10T01:29:56.618Z,67.62
2023-10-10T01:30:59.090Z,67.75
2023-10-10T01:32:01.318Z,67.86
2023-10-10T01:33:04.055Z,67.78
2023-10-10T01:34:06.433Z,67.84
2023-10-10T01:35:08.953Z,67.78
2023-10-10T01:36:12.374Z,67.65
2023-10-10T01:37:14.811Z,67.73
2023-10-10T01:38:36.253Z,67.76
2023-10-10T01:39:48.298Z,67.74
2023-10-10T01:40:50.738Z,67.84
2023-10-10T01:41:53.329Z,67.82
2023-10-10T01:42:55.846Z,67.79
2023-10-10T01:44:02.040Z,67.69
2023-10-10T01:45:05.446Z,67.62
2023-10-10T01:46:08.061Z,67.73
2023-10-10T01:47:10.520Z,67.74
2023-10-10T01:48:14.781Z,67.71
2023-10-10T01:49:18.109Z,67.61
2023-10-10T01:50:22.468Z,67.67
2023-10-10T01:51:25.236Z,67.50
2023-10-10T01:52:27.951Z,67.51
2023-10-10T01:53:30.323Z,67.53
2023-10-10T01:54:32.779Z,67.58
2023-10-10T01:55:35.148Z,67.52
2023-10-10T01:56:38.062Z,67.54
2023-10-10T01:57:40.569Z,67.62
2023-10-10T01:58:42.929Z,67.53
2023-10-10T01:59:49.791Z,67.55
2023-10-10T02:00:52.624Z,67.50
2023-10-10T02:01:55.312Z,67.46
2023-10-10T02:02:58.298Z,67.50
2023-10-10T02:04:01.224Z,67.53
2023-10-10T02:05:04.333Z,67.46
2023-10-10T02:06:07.154Z,67.52
2023-10-10T02:07:09.787Z,67.53
2023-10-10T02:08:12.199Z,67.55
2023-10-10T02:09:14.699Z,67.52
2023-10-10T02:10:17.686Z,67.53
2023-10-10T02:11:20.070Z,67.64
2023-10-10T02:12:22.577Z,67.68
2023-10-10T02:14:20.680Z,67.64
2023-10-10T02:15:23.055Z,67.67
2023-10-10T02:16:25.390Z,67.62
2023-10-10T02:17:29.113Z,67.60
2023-10-10T02:18:32.586Z,67.62
2023-10-10T02:19:37.652Z,67.55
2023-10-10T02:20:41.083Z,67.64
2023-10-10T02:21:44.606Z,67.65
2023-10-10T02:22:47.717Z,67.77
2023-10-10T02:23:50.050Z,67.63
2023-10-10T02:24:52.895Z,67.68
2023-10-10T02:25:55.707Z,67.80
2023-10-10T02:26:58.458Z,67.83
2023-10-10T02:28:01.397Z,67.88
2023-10-10T02:29:05.257Z,67.85
2023-10-10T02:30:09.394Z,67.91
2023-10-10T02:31:11.898Z,67.89
2023-10-10T02:32:14.816Z,67.91
2023-10-10T02:33:17.411Z,68.03
2023-10-10T02:34:20.136Z,68.01
2023-10-10T02:35:22.543Z,68.00
2023-10-10T02:36:24.833Z,68.01
2023-10-10T02:37:27.105Z,68.03
2023-10-10T02:38:31.817Z,68.02
2023-10-10T02:39:34.176Z,68.00
2023-10-10T02:40:36.701Z,67.96
2023-10-10T02:41:39.170Z,68.09
2023-10-10T02:43:56.981Z,68.19
2023-10-10T02:45:00.496Z,68.35
2023-10-10T02:46:02.947Z,68.41
2023-10-10T02:47:06.082Z,68.28
2023-10-10T02:48:08.911Z,68.37
2023-10-10T02:49:15.233Z,68.48
2023-10-10T02:50:18.153Z,68.43
2023-10-10T02:51:21.189Z,68.51
2023-10-10T02:52:23.776Z,68.53
2023-10-10T02:53:26.457Z,68.48
2023-10-10T02:54:29.751Z,68.50
2023-10-10T02:55:32.225Z,68.51
2023-10-10T02:56:34.844Z,68.55
2023-10-10T02:57:37.122Z,68.65
2023-10-10T02:58:39.939Z,68.67
2023-10-10T02:59:42.673Z,68.70
2023-10-10T03:00:45.398Z,68.73
2023-10-10T03:01:48.674Z,68.79
2023-10-10T03:02:51.963Z,68.86
2023-10-10T03:03:56.823Z,68.88
2023-10-10T03:05:01.153Z,68.97
2023-10-10T03:06:05.121Z,69.01
2023-10-10T03:07:07.935Z,69.12
2023-10-10T03:08:12.341Z,69.10
2023-10-10T03:09:15.280Z,69.18
2023-10-10T03:10:18.681Z,69.17
2023-10-10T03:11:21.279Z,69.20
2023-10-10T03:12:23.620Z,69.18
2023-10-10T03:13:25.890Z,69.24
2023-10-10T03:14:28.338Z,69.15
2023-10-10T03:15:31.341Z,69.08
2023-10-10T03:16:34.934Z,69.13
2023-10-10T03:17:44.200Z,69.23
2023-10-10T03:18:47.497Z,69.34
2023-10-10T03:19:50.161Z,69.26
2023-10-10T03:20:52.501Z,69.38
2023-10-10T03:21:54.990Z,69.35
2023-10-10T03:22:58.666Z,69.33
2023-10-10T03:24:01.107Z,69.39
2023-10-10T03:25:04.184Z,69.41
2023-10-10T03:26:07.474Z,69.40
2023-10-10T03:27:11.179Z,69.46
2023-10-10T03:29:24.391Z,69.61
2023-10-10T03:30:27.436Z,69.87
2023-10-10T03:31:30.098Z,69.89
2023-10-10T03:32:33.189Z,69.88
2023-10-10T03:33:37.348Z,69.92
2023-10-10T03:34:40.391Z,69.90
2023-10-10T03:35:42.711Z,69.96
2023-10-10T03:36:45.590Z,69.97
2023-10-10T03:37:48.874Z,70.04
2023-10-10T03:38:52.553Z,70.05
2023-10-10T03:39:55.885Z,70.05
2023-10-10T03:40:58.328Z,70.08
2023-10-10T03:42:01.910Z,70.12
2023-10-10T03:43:04.292Z,70.17
2023-10-10T03:44:06.663Z,70.18
2023-10-10T03:45:09.801Z,70.09
2023-10-10T03:46:12.783Z,70.07
2023-10-10T03:47:15.307Z,70.03
2023-10-10T03:48:17.964Z,70.01
2023-10-10T03:49:20.530Z,70.04
2023-10-10T03:50:22.918Z,69.92
2023-10-10T03:51:25.114Z,69.81
2023-10-10T03:52:27.505Z,69.79
2023-10-10T03:53:30.171Z,69.68
2023-10-10T03:54:32.464Z,69.67
2023-10-10T03:55:38.143Z,69.61
2023-10-10T03:56:40.906Z,69.56
2023-10-10T03:57:43.363Z,69.58
2023-10-10T03:58:45.659Z,69.56
2023-10-10T03:59:47.930Z,69.50
2023-10-10T04:00:55.565Z,69.53
2023-10-10T04:01:57.865Z,69.62
2023-10-10T04:03:01.065Z,69.62
2023-10-10T04:04:04.081Z,69.61
2023-10-10T04:05:23.745Z,69.82
2023-10-10T04:06:11.044Z,69.87
2023-10-10T04:07:13.400Z,69.93
2023-10-10T04:08:15.758Z,69.96
2023-10-10T04:09:18.030Z,70.10
2023-10-10T04:10:20.373Z,70.14
2023-10-10T04:11:23.191Z,70.15
2023-10-10T04:12:25.395Z,70.13
2023-10-10T04:13:28.026Z,70.11
2023-10-10T04:14:30.408Z,70.15
2023-10-10T04:15:34.329Z,70.10
2023-10-10T04:16:37.260Z,70.16
2023-10-10T04:17:41.814Z,70.14
2023-10-10T04:18:44.559Z,70.09
2023-10-10T04:19:47.996Z,70.07
2023-10-10T04:20:50.874Z,70.11
2023-10-10T04:21:53.542Z,70.05
2023-10-10T04:22:55.806Z,70.04
2023-10-10T04:23:58.156Z,70.05
2023-10-10T04:25:02.694Z,70.02
2023-10-10T04:26:05.478Z,70.06
2023-10-10T04:27:08.139Z,70.02
2023-10-10T04:28:10.861Z,70.05
2023-10-10T04:29:13.172Z,69.93
2023-10-10T04:30:16.304Z,69.81
2023-10-10T04:31:18.802Z,69.73
2023-10-10T04:32:22.640Z,69.79
2023-10-10T04:33:25.433Z,69.72
2023-10-10T04:34:28.566Z,69.76
2023-10-10T04:35:30.913Z,69.68
2023-10-10T04:36:33.671Z,69.69
2023-10-10T04:37:36.326Z,69.71
2023-10-10T04:38:38.949Z,69.71
2023-10-10T04:39:41.515Z,69.77
2023-10-10T04:40:44.008Z,69.83
2023-10-10T04:41:46.322Z,69.90
2023-10-10T04:42:48.712Z,69.88
2023-10-10T04:43:52.954Z,69.80
2023-10-10T04:44:55.512Z,69.96
2023-10-10T04:45:57.960Z,70.09
2023-10-10T04:47:00.564Z,70.18
2023-10-10T04:48:02.961Z,70.20
2023-10-10T04:49:05.607Z,70.29
2023-10-10T04:50:09.289Z,70.25
2023-10-10T04:51:11.648Z,70.31
2023-10-10T04:52:14.279Z,70.24
2023-10-10T04:53:16.626Z,70.31
2023-10-10T04:54:20.029Z,70.21
2023-10-10T04:55:22.229Z,70.31
2023-10-10T04:56:24.562Z,70.34
2023-10-10T04:57:26.774Z,70.33
2023-10-10T04:58:29.005Z,70.32
2023-10-10T04:59:31.367Z,70.15
2023-10-10T05:00:34.120Z,70.18
2023-10-10T05:01:36.434Z,70.23
2023-10-10T05:02:38.691Z,70.12
2023-10-10T05:03:44.944Z,70.00
2023-10-10T05:04:47.440Z,70.00
2023-10-10T05:05:57.062Z,69.79
2023-10-10T05:06:59.710Z,69.78
2023-10-10T05:08:02.146Z,69.84
2023-10-10T05:09:04.603Z,69.82
2023-10-10T05:10:07.462Z,69.87
2023-10-10T05:11:09.697Z,69.77
2023-10-10T05:12:12.020Z,69.74
2023-10-10T05:13:14.540Z,69.74
2023-10-10T05:14:16.977Z,69.67
2023-10-10T05:15:19.701Z,69.54
2023-10-10T05:16:23.133Z,69.37
2023-10-10T05:17:25.580Z,69.42
2023-10-10T05:19:21.277Z,69.22
2023-10-10T05:20:24.648Z,69.43
2023-10-10T05:21:27.153Z,69.57
2023-10-10T05:22:29.459Z,69.48
2023-10-10T05:23:33.766Z,69.38
2023-10-10T05:24:36.060Z,69.51
2023-10-10T05:25:38.743Z,69.54
2023-10-10T05:26:41.553Z,69.83
2023-10-10T05:27:44.091Z,69.84
2023-10-10T05:29:57.321Z,69.62
2023-10-10T05:31:02.559Z,69.80
2023-10-10T05:32:05.158Z,69.84
2023-10-10T05:33:07.568Z,69.71
2023-10-10T05:34:09.812Z,69.90
2023-10-10T05:35:12.245Z,69.49
2023-10-10T05:36:15.210Z,69.57
2023-10-10T05:37:18.074Z,69.71
2023-10-10T05:38:20.713Z,69.75
2023-10-10T05:39:23.035Z,69.72
2023-10-10T05:40:26.512Z,69.83
2023-10-10T05:41:28.886Z,69.90
2023-10-10T05:42:31.661Z,70.04
2023-10-10T05:43:35.742Z,70.11
2023-10-10T05:44:38.053Z,70.02
2023-10-10T05:45:40.466Z,69.88
2023-10-10T05:46:44.049Z,69.68
2023-10-10T05:47:46.751Z,69.32
2023-10-10T05:48:49.073Z,69.58
2023-10-10T05:49:52.370Z,69.38
2023-10-10T05:50:55.132Z,69.22
2023-10-10T05:51:57.714Z,69.11
2023-10-10T05:53:00.671Z,68.71
2023-10-10T05:54:03.500Z,68.62
2023-10-10T05:55:07.264Z,68.70
2023-10-10T05:56:09.789Z,68.53
2023-10-10T05:57:12.174Z,68.46
2023-10-10T05:58:15.134Z,68.42
2023-10-10T05:59:17.406Z,68.63
2023-10-10T06:00:20.263Z,68.59
2023-10-10T06:01:22.686Z,68.63
2023-10-10T06:02:25.077Z,69.09
2023-10-10T06:03:28.049Z,69.23
2023-10-10T06:04:30.836Z,68.89
2023-10-10T06:06:43.508Z,68.47
2023-10-10T06:07:46.198Z,68.42
2023-10-10T06:08:48.907Z,68.49
2023-10-10T06:09:51.184Z,68.46
2023-10-10T06:10:54.138Z,68.38
2023-10-10T06:11:56.399Z,68.26
2023-10-10T06:12:59.722Z,68.03
2023-10-10T06:14:02.797Z,67.96
2023-10-10T06:15:08.230Z,67.95
2023-10-10T06:16:13.155Z,68.17
2023-10-10T06:17:16.839Z,68.50
2023-10-10T06:18:20.015Z,68.63
2023-10-10T06:19:23.445Z,68.56
2023-10-10T06:20:26.496Z,68.39
2023-10-10T06:21:29.001Z,68.54
2023-10-10T06:22:31.589Z,68.49
2023-10-10T06:23:35.377Z,68.39
2023-10-10T06:24:37.942Z,68.11
2023-10-10T06:25:41.303Z,68.17
2023-10-10T06:26:44.076Z,68.01
2023-10-10T06:27:47.835Z,68.10
2023-10-10T06:28:50.535Z,68.42
2023-10-10T06:29:52.783Z,68.20
2023-10-10T06:30:56.923Z,68.21
2023-10-10T06:31:59.249Z,68.07
2023-10-10T06:33:01.925Z,67.97
2023-10-10T06:34:04.996Z,68.14
2023-10-10T06:35:08.953Z,67.95
2023-10-10T06:36:11.468Z,67.93
2023-10-10T06:37:14.017Z,68.15
2023-10-10T06:38:16.857Z,68.53
2023-10-10T06:39:20.105Z,68.86
2023-10-10T06:40:22.918Z,68.58
2023-10-10T06:41:25.225Z,68.66
2023-10-10T06:42:27.753Z,68.82
2023-10-10T06:43:30.516Z,68.81
2023-10-10T06:44:32.786Z,68.78
2023-10-10T06:45:35.976Z,68.66
2023-10-10T06:46:39.672Z,68.69
2023-10-10T06:47:43.103Z,68.95
2023-10-10T06:48:45.430Z,68.71
2023-10-10T06:49:47.956Z,68.70
2023-10-10T06:50:50.922Z,68.92
2023-10-10T06:51:53.932Z,68.69
2023-10-10T06:52:56.768Z,68.50
2023-10-10T06:53:59.032Z,68.59
2023-10-10T06:55:01.730Z,68.42
2023-10-10T06:57:14.690Z,68.22
2023-10-10T06:58:17.511Z,68.39
2023-10-10T06:59:22.016Z,68.53
2023-10-10T07:00:26.000Z,68.23
2023-10-10T07:01:28.529Z,68.40
2023-10-10T07:02:31.226Z,68.46
2023-10-10T07:03:33.872Z,68.25
2023-10-10T07:04:36.607Z,68.49
2023-10-10T07:05:39.331Z,68.49
2023-10-10T07:06:41.804Z,68.23
2023-10-10T07:07:44.660Z,68.22
2023-10-10T07:08:48.058Z,68.40
2023-10-10T07:09:50.445Z,68.21
2023-10-10T07:10:53.364Z,68.08
2023-10-10T07:12:00.398Z,68.10
2023-10-10T07:13:05.754Z,68.12
2023-10-10T07:14:08.194Z,68.30
2023-10-10T07:15:11.325Z,68.22
2023-10-10T07:16:14.781Z,68.11
2023-10-10T07:17:17.508Z,68.05
2023-10-10T07:18:20.358Z,68.11
2023-10-10T07:19:22.489Z,68.46
2023-10-10T07:20:27.006Z,68.62
2023-10-10T07:21:29.983Z,68.29
2023-10-10T07:22:34.006Z,68.19
2023-10-10T07:23:41.177Z,68.40
2023-10-10T07:24:43.922Z,68.77
2023-10-10T07:25:46.992Z,68.60
2023-10-10T07:26:49.511Z,68.02
2023-10-10T07:27:52.391Z,67.95
2023-10-10T07:28:54.777Z,67.87
2023-10-10T07:29:58.465Z,67.56
2023-10-10T07:31:01.364Z,67.23
2023-10-10T07:32:03.785Z,66.94
2023-10-10T07:33:06.053Z,67.22
2023-10-10T07:34:08.453Z,67.09
2023-10-10T07:35:11.384Z,67.06
2023-10-10T07:36:14.498Z,66.69
2023-10-10T07:37:18.964Z,66.55
2023-10-10T07:38:21.229Z,66.46
2023-10-10T07:39:23.552Z,66.23
2023-10-10T07:40:26.606Z,65.96
2023-10-10T07:41:29.297Z,65.75
2023-10-10T07:42:32.293Z,65.45
2023-10-10T07:43:34.650Z,65.30
2023-10-10T07:44:37.451Z,65.30
2023-10-10T07:45:40.003Z,64.75
2023-10-10T07:46:42.985Z,65.27
2023-10-10T07:47:45.831Z,65.41
2023-10-10T07:48:47.983Z,65.68
2023-10-10T07:49:50.665Z,65.37
2023-10-10T07:50:53.023Z,64.98
2023-10-10T07:51:55.896Z,64.87
2023-10-10T07:52:58.468Z,64.59
2023-10-10T07:54:02.947Z,64.52
2023-10-10T07:55:05.728Z,64.48
2023-10-10T07:56:09.228Z,64.35
2023-10-10T07:57:11.535Z,64.13
2023-10-10T07:58:14.516Z,63.59
2023-10-10T07:59:16.886Z,63.85
2023-10-10T08:00:19.891Z,63.49
2023-10-10T08:01:22.356Z,63.04
2023-10-10T08:02:25.779Z,63.24
2023-10-10T08:03:28.994Z,62.90
2023-10-10T08:04:31.315Z,63.52
2023-10-10T08:05:34.993Z,63.48
2023-10-10T08:06:37.476Z,63.65
2023-10-10T08:07:40.197Z,63.31
2023-10-10T08:08:42.494Z,62.87
2023-10-10T08:09:45.879Z,62.86
2023-10-10T08:10:48.157Z,62.94
2023-10-10T08:11:51.287Z,62.61
2023-10-10T08:12:53.844Z,62.45
2023-10-10T08:13:56.619Z,62.39
2023-10-10T08:14:58.866Z,62.12
2023-10-10T08:16:01.216Z,62.45
2023-10-10T08:17:04.102Z,62.61
2023-10-10T08:18:06.545Z,62.16
2023-10-10T08:19:08.896Z,61.76
2023-10-10T08:20:12.925Z,62.41
2023-10-10T08:21:15.398Z,61.98
2023-10-10T08:22:21.855Z,62.66
2023-10-10T08:23:25.460Z,62.18
2023-10-10T08:24:31.518Z,62.33
2023-10-10T08:25:51.392Z,61.11
2023-10-10T08:26:56.812Z,61.43
2023-10-10T08:28:02.701Z,60.99
2023-10-10T08:29:09.831Z,60.82
2023-10-10T08:30:14.951Z,61.19
2023-10-10T08:31:21.344Z,61.18
2023-10-10T08:32:24.965Z,60.76
2023-10-10T08:33:30.574Z,60.82
2023-10-10T08:34:34.544Z,60.94
2023-10-10T08:35:43.572Z,60.87
2023-10-10T08:36:48.424Z,61.17
2023-10-10T08:37:55.653Z,60.97
2023-10-10T08:39:01.831Z,60.79
2023-10-10T08:40:06.120Z,61.08
2023-10-10T08:41:11.353Z,61.03
2023-10-10T08:42:16.405Z,61.12
2023-10-10T08:43:36.134Z,60.53
2023-10-10T08:44:41.614Z,60.55
2023-10-10T08:45:50.039Z,60.20
2023-10-10T08:47:00.044Z,60.25
2023-10-10T08:48:08.575Z,60.37
2023-10-10T08:49:19.333Z,59.96
2023-10-10T08:50:31.628Z,59.93
2023-10-10T08:51:39.297Z,60.39
2023-10-10T08:52:44.979Z,60.13
2023-10-10T08:53:52.516Z,60.52
2023-10-10T08:54:56.320Z,60.07
2023-10-10T08:56:04.721Z,59.31
2023-10-10T08:57:25.140Z,59.11
2023-10-10T08:58:44.677Z,59.88
2023-10-10T08:59:47.706Z,58.97
2023-10-10T09:00:59.350Z,58.20
2023-10-10T09:02:14.056Z,58.74
2023-10-10T09:03:25.100Z,58.62
2023-10-10T09:04:29.509Z,57.66
2023-10-10T09:05:34.777Z,57.40
2023-10-10T09:06:42.170Z,57.69
2023-10-10T09:07:52.629Z,57.12
2023-10-10T09:08:57.157Z,56.49
2023-10-10T09:10:06.567Z,56.57
2023-10-10T09:11:16.538Z,56.40
2023-10-10T09:12:20.595Z,56.24
2023-10-10T09:13:25.107Z,56.09
2023-10-10T09:14:39.947Z,55.69
2023-10-10T09:15:55.838Z,56.10
2023-10-10T09:17:06.028Z,55.40
2023-10-10T09:18:16.511Z,55.42
2023-10-10T09:19:22.897Z,55.60
2023-10-10T09:20:28.760Z,55.97
2023-10-10T09:21:45.167Z,56.01
2023-10-10T09:22:48.555Z,56.55
2023-10-10T09:23:51.970Z,55.53
2023-10-10T09:25:01.696Z,55.12
2023-10-10T09:26:14.489Z,55.32
2023-10-10T09:27:26.761Z,55.67
2023-10-10T09:28:35.536Z,54.97
2023-10-10T09:29:42.838Z,55.38
2023-10-10T09:30:50.979Z,55.36
2023-10-10T09:31:54.653Z,55.59
2023-10-10T09:32:59.894Z,55.06
2023-10-10T09:34:20.674Z,54.34
2023-10-10T09:35:28.348Z,53.88
2023-10-10T09:36:32.254Z,53.28
2023-10-10T09:37:37.452Z,53.72
2023-10-10T09:38:42.875Z,53.90
2023-10-10T09:39:52.375Z,53.53
2023-10-10T09:41:02.010Z,53.54
2023-10-10T09:42:11.567Z,54.25
2023-10-10T09:43:19.789Z,54.00
2023-10-10T09:44:24.540Z,52.72
2023-10-10T09:45:32.094Z,53.51
2023-10-10T09:46:49.308Z,53.97
2023-10-10T09:47:54.141Z,52.31
2023-10-10T09:49:12.089Z,52.54
2023-10-10T09:50:15.505Z,51.85
2023-10-10T09:51:23.305Z,51.52
2023-10-10T09:52:27.297Z,51.28
2023-10-10T09:53:35.080Z,51.50
2023-10-10T09:54:40.817Z,51.61
2023-10-10T09:55:46.214Z,51.86
2023-10-10T09:56:53.917Z,52.18
2023-10-10T09:57:58.464Z,52.63
2023-10-10T09:59:07.427Z,52.64
2023-10-10T10:00:26.752Z,52.36
2023-10-10T10:01:22.819Z,52.37
2023-10-10T10:02:33.064Z,51.08
2023-10-10T10:03:37.498Z,50.10
2023-10-10T10:04:42.750Z,50.06
2023-10-10T10:05:52.798Z,51.17
2023-10-10T10:07:22.645Z,50.80
2023-10-10T10:08:46.042Z,51.18
2023-10-10T10:10:16.551Z,50.47
2023-10-10T10:11:37.375Z,49.72
2023-10-10T10:13:02.584Z,49.75
2023-10-10T10:14:23.299Z,49.93
2023-10-10T10:15:50.332Z,49.01
2023-10-10T10:17:00.750Z,49.14
2023-10-10T10:19:36.007Z,49.77
2023-10-10T10:20:41.792Z,50.02
2023-10-10T10:21:59.409Z,50.20
2023-10-10T10:23:03.603Z,50.33
2023-10-10T10:24:08.920Z,50.17
2023-10-10T10:25:14.148Z,50.13
2023-10-10T10:26:18.064Z,50.18
2023-10-10T10:27:30.078Z,50.51
2023-10-10T10:28:35.032Z,50.82
2023-10-10T10:29:39.810Z,49.92
2023-10-10T10:30:48.380Z,49.97
2023-10-10T10:31:58.060Z,49.98
2023-10-10T10:33:05.025Z,49.29
2023-10-10T10:34:14.372Z,48.54
2023-10-10T10:35:48.885Z,48.27
2023-10-10T10:37:06.388Z,48.79
2023-10-10T10:38:13.554Z,49.05
2023-10-10T10:39:34.603Z,49.75
2023-10-10T10:40:42.392Z,49.13
2023-10-10T10:41:48.271Z,48.83
2023-10-10T10:42:56.373Z,49.28
2023-10-10T10:44:04.115Z,49.51
2023-10-10T10:45:25.801Z,49.72
2023-10-10T10:46:32.880Z,49.34
2023-10-10T10:47:40.717Z,48.66
2023-10-10T10:48:44.735Z,47.72
2023-10-10T10:49:55.089Z,48.50
2023-10-10T10:52:37.748Z,49.01
2023-10-10T10:53:41.601Z,47.13
2023-10-10T10:54:46.338Z,47.57
2023-10-10T10:55:49.812Z,47.01
2023-10-10T10:56:52.552Z,46.33
2023-10-10T10:57:57.761Z,46.22
2023-10-10T10:59:13.381Z,46.27
2023-10-10T11:00:15.936Z,46.05
2023-10-10T11:01:18.734Z,47.15
2023-10-10T11:02:32.381Z,47.62
2023-10-10T11:03:36.988Z,47.97
2023-10-10T11:04:40.852Z,47.76
2023-10-10T11:05:44.432Z,47.73
2023-10-10T11:06:51.862Z,47.58
2023-10-10T11:07:58.687Z,47.86
2023-10-10T11:09:01.026Z,47.57
2023-10-10T11:10:04.085Z,47.07
2023-10-10T11:11:06.773Z,47.70
2023-10-10T11:12:10.083Z,47.70
2023-10-10T11:13:12.899Z,48.19
2023-10-10T11:14:15.794Z,48.22
2023-10-10T11:15:18.649Z,48.17
2023-10-10T11:17:32.254Z,48.59
2023-10-10T11:18:35.615Z,48.79
2023-10-10T11:19:38.663Z,48.60
2023-10-10T11:20:41.069Z,48.52
2023-10-10T11:21:43.500Z,48.13
2023-10-10T11:22:45.808Z,48.20
2023-10-10T11:23:49.328Z,48.66
2023-10-10T11:24:51.957Z,47.76
2023-10-10T11:25:55.952Z,47.90
2023-10-10T11:27:04.655Z,47.79
2023-10-10T11:28:07.032Z,48.01
2023-10-10T11:29:24.540Z,48.16
2023-10-10T11:30:26.938Z,47.99
2023-10-10T11:31:35.482Z,48.36
2023-10-10T11:32:41.924Z,48.20
2023-10-10T11:33:45.765Z,47.80
2023-10-10T11:34:48.193Z,47.71
2023-10-10T11:35:50.629Z,47.84
2023-10-10T11:38:05.454Z,48.23
2023-10-10T11:39:27.710Z,48.06
2023-10-10T11:40:31.512Z,48.12
2023-10-10T11:41:36.550Z,48.21
2023-10-10T11:42:38.832Z,48.69
2023-10-10T11:44:02.357Z,48.57
2023-10-10T11:45:07.444Z,48.37
2023-10-10T11:46:10.166Z,48.78
2023-10-10T11:47:13.851Z,48.61
2023-10-10T11:48:17.513Z,48.55
2023-10-10T11:49:21.196Z,48.17
2023-10-10T11:50:26.420Z,48.01
2023-10-10T11:51:35.904Z,47.77
2023-10-10T11:52:59.474Z,48.01
2023-10-10T11:54:02.875Z,48.13
2023-10-10T11:55:05.309Z,48.51
2023-10-10T11:56:08.758Z,47.82
2023-10-10T11:57:11.083Z,47.82
2023-10-10T11:58:13.961Z,47.84
2023-10-10T11:59:17.580Z,48.03
2023-10-10T12:00:27.654Z,48.51
2023-10-10T12:01:26.586Z,48.36
2023-10-10T12:02:30.182Z,47.83
2023-10-10T12:03:33.977Z,48.24
2023-10-10T12:04:37.099Z,48.71
2023-10-10T12:05:40.317Z,48.62
2023-10-10T12:06:42.887Z,48.37
2023-10-10T12:07:45.838Z,48.51
2023-10-10T12:08:49.202Z,48.88
2023-10-10T12:09:51.714Z,49.01
2023-10-10T12:10:55.970Z,48.60
2023-10-10T12:11:58.920Z,48.68
2023-10-10T12:13:01.817Z,49.25
2023-10-10T12:14:04.278Z,48.98
2023-10-10T12:15:08.196Z,48.93
2023-10-10T12:16:10.754Z,49.02
2023-10-10T12:17:13.790Z,49.31
2023-10-10T12:18:16.203Z,49.70
2023-10-10T12:19:19.575Z,49.46
2023-10-10T12:20:22.635Z,49.29
2023-10-10T12:21:25.612Z,48.90
2023-10-10T12:22:28.268Z,48.67
2023-10-10T12:23:31.593Z,48.64
2023-10-10T12:24:35.013Z,48.83
2023-10-10T12:25:37.897Z,48.20
2023-10-10T12:26:41.115Z,48.07
2023-10-10T12:27:43.577Z,48.14
2023-10-10T12:28:45.924Z,47.98
2023-10-10T12:29:48.413Z,48.15
2023-10-10T12:30:51.164Z,48.63
2023-10-10T12:31:53.962Z,48.56
2023-10-10T12:32:56.778Z,48.69
2023-10-10T12:34:00.398Z,48.59
2023-10-10T12:35:03.193Z,48.38
2023-10-10T12:36:06.549Z,48.96
2023-10-10T12:37:11.194Z,49.13
2023-10-10T12:39:28.984Z,48.75
2023-10-10T12:40:31.452Z,48.90
2023-10-10T12:41:34.728Z,49.16
2023-10-10T12:42:37.619Z,49.52
2023-10-10T12:43:40.318Z,49.21
2023-10-10T12:44:42.750Z,48.95
2023-10-10T12:45:45.329Z,49.07
2023-10-10T12:46:47.920Z,48.96
2023-10-10T12:47:51.331Z,49.05
2023-10-10T12:48:53.859Z,48.80
2023-10-10T12:49:57.257Z,49.01
2023-10-10T12:51:00.349Z,49.19
2023-10-10T12:52:05.035Z,48.97
2023-10-10T12:53:07.569Z,49.09
2023-10-10T12:54:10.417Z,48.94
2023-10-10T12:55:14.175Z,49.40
2023-10-10T12:56:17.143Z,49.40
2023-10-10T12:57:19.538Z,49.56
2023-10-10T12:59:35.159Z,49.83
2023-10-10T13:00:38.181Z,49.35
2023-10-10T13:01:40.919Z,49.24
2023-10-10T13:02:44.029Z,49.00
2023-10-10T13:03:47.673Z,48.75
2023-10-10T13:04:51.933Z,48.83
2023-10-10T13:05:57.863Z,48.19
2023-10-10T13:07:00.679Z,48.23
2023-10-10T13:08:03.062Z,48.07
2023-10-10T13:09:05.473Z,47.79
2023-10-10T13:10:08.780Z,48.06
2023-10-10T13:11:11.262Z,47.61
2023-10-10T13:12:14.108Z,47.43
2023-10-10T13:13:17.064Z,47.24
2023-10-10T13:14:20.089Z,46.97
2023-10-10T13:15:23.232Z,46.50
2023-10-10T13:16:26.020Z,46.18
2023-10-10T13:17:28.702Z,45.89
2023-10-10T13:18:31.575Z,45.86
2023-10-10T13:19:33.996Z,46.15
2023-10-10T13:20:36.956Z,46.41
2023-10-10T13:21:41.012Z,46.52
2023-10-10T13:22:43.889Z,47.10
2023-10-10T13:23:51.193Z,47.05
2023-10-10T13:24:53.686Z,46.70
2023-10-10T13:25:57.116Z,46.85
2023-10-10T13:26:59.987Z,46.84
2023-10-10T13:28:03.664Z,47.07
2023-10-10T13:29:07.024Z,47.17
2023-10-10T13:30:10.980Z,47.15
2023-10-10T13:31:18.205Z,47.54
2023-10-10T13:32:20.740Z,47.68
2023-10-10T13:33:23.658Z,47.99
2023-10-10T13:34:26.178Z,47.95
2023-10-10T13:35:28.840Z,48.00
2023-10-10T13:36:31.356Z,47.84
2023-10-10T13:37:33.669Z,47.89
2023-10-10T13:38:36.093Z,47.83
2023-10-10T13:39:38.445Z,48.84
2023-10-10T13:40:41.554Z,48.67
2023-10-10T13:41:44.784Z,48.60
2023-10-10T13:42:47.375Z,48.44
2023-10-10T13:43:52.432Z,48.22
2023-10-10T13:44:54.836Z,48.03
2023-10-10T13:45:57.224Z,48.06
2023-10-10T13:47:00.417Z,48.09
2023-10-10T13:48:03.734Z,47.49
2023-10-10T13:49:06.812Z,47.77
2023-10-10T13:50:10.343Z,47.49
2023-10-10T13:51:12.815Z,47.70
2023-10-10T13:52:15.078Z,47.49
2023-10-10T13:53:18.044Z,47.33
2023-10-10T13:54:21.447Z,47.61
2023-10-10T13:55:24.907Z,47.49
2023-10-10T13:56:27.479Z,47.09
2023-10-10T13:57:29.793Z,47.75
2023-10-10T13:58:33.987Z,47.58
2023-10-10T13:59:37.046Z,47.27
2023-10-10T14:00:44.603Z,47.51
2023-10-10T14:01:47.252Z,47.62
2023-10-10T14:02:49.789Z,47.25
2023-10-10T14:03:52.700Z,47.26
2023-10-10T14:04:55.770Z,47.24